Time;durP1;ratioP1;P1;durP2;ratioP2;P2;SDS_P1;SDS_P2;PMS_P1;PMS_P2;Temp;Humidity;BMP_temperature;BMP_pressure;BME280_temperature;BME280_humidity;BME280_pressure;Samples;Min_cycle;Max_cycle;Signal;HPM_P1;HPM_P2
2022/11/18 00:00:54;;;;;;;11.82;3.50;;;11.50;99.90;;;;;;5026808;28;20056;-72
2022/11/18 00:03:20;;;;;;;5.80;2.85;;;11.50;99.90;;;;;;5027522;28;20036;-73
2022/11/18 00:05:53;;;;;;;7.10;2.88;;;11.50;99.90;;;;;;5028845;28;20029;-73
2022/11/18 00:08:23;;;;;;;7.13;3.33;;;11.50;99.90;;;;;;5027202;28;20021;-72
2022/11/18 00:10:53;;;;;;;8.23;2.95;;;11.60;99.90;;;;;;5028074;28;20026;-74
2022/11/18 00:16:11;;;;;;;9.10;2.80;;;11.60;99.90;;;;;;5027733;28;20090;-72
2022/11/18 00:18:38;;;;;;;6.55;2.95;;;11.60;99.90;;;;;;5025923;28;20120;-72
2022/11/18 00:21:11;;;;;;;6.95;2.40;;;11.70;99.90;;;;;;5042114;28;20095;-71
2022/11/18 00:23:37;;;;;;;7.05;2.67;;;11.70;99.90;;;;;;5027728;28;20056;-73
2022/11/18 00:26:06;;;;;;;7.75;2.25;;;11.70;99.90;;;;;;5027037;28;20138;-75
2022/11/18 00:28:32;;;;;;;6.75;2.67;;;11.60;99.90;;;;;;5028443;28;20025;-71
2022/11/18 00:31:06;;;;;;;8.65;2.47;;;11.60;99.90;;;;;;5026651;28;20068;-73
2022/11/18 00:33:32;;;;;;;6.97;3.00;;;11.70;99.90;;;;;;5025864;28;20091;-71
2022/11/18 00:35:58;;;;;;;6.53;2.60;;;11.60;99.90;;;;;;5024762;28;20424;-72
2022/11/18 00:38:25;;;;;;;8.15;2.65;;;11.60;99.90;;;;;;5027124;28;20055;-72
2022/11/18 00:41:01;;;;;;;8.88;2.47;;;11.70;99.90;;;;;;5024146;28;20018;-72
2022/11/18 00:43:26;;;;;;;8.77;2.63;;;11.60;99.90;;;;;;5025275;28;20521;-72
2022/11/18 00:45:52;;;;;;;4.75;3.15;;;11.60;99.90;;;;;;5026304;28;20116;-73
2022/11/18 00:48:20;;;;;;;10.40;2.85;;;11.60;99.90;;;;;;5027852;28;20387;-73
2022/11/18 00:50:50;;;;;;;7.45;2.80;;;11.60;99.90;;;;;;5027401;28;20014;-73
2022/11/18 00:53:17;;;;;;;10.57;2.95;;;11.70;99.90;;;;;;5024358;28;21203;-74
2022/11/18 00:55:45;;;;;;;5.80;2.30;;;11.70;99.90;;;;;;5027367;28;20397;-72
2022/11/18 00:58:13;;;;;;;6.97;2.67;;;11.70;99.90;;;;;;5028259;28;20117;-72
2022/11/18 01:00:43;;;;;;;9.00;2.35;;;11.70;99.90;;;;;;5025324;28;20022;-72
2022/11/18 01:03:10;;;;;;;9.50;3.13;;;11.70;99.90;;;;;;5025254;28;20061;-72
2022/11/18 01:05:36;;;;;;;5.00;2.40;;;11.60;99.90;;;;;;5025160;28;20048;-72
2022/11/18 01:08:05;;;;;;;6.43;2.58;;;11.60;99.90;;;;;;5025551;28;20017;-72
2022/11/18 01:10:34;;;;;;;10.90;2.95;;;11.60;99.90;;;;;;5027762;28;20017;-72
2022/11/18 01:13:18;;;;;;;9.10;2.58;;;11.60;99.90;;;;;;5028202;28;20366;-73
2022/11/18 01:15:46;;;;;;;12.57;3.20;;;11.60;99.90;;;;;;5033255;28;20470;-73
2022/11/18 01:18:12;;;;;;;7.25;3.20;;;11.60;99.90;;;;;;5030871;28;20069;-74
2022/11/18 01:20:38;;;;;;;10.75;2.80;;;11.50;99.90;;;;;;5029669;28;20184;-70
2022/11/18 01:23:03;;;;;;;6.97;2.65;;;11.50;99.90;;;;;;5030786;28;20037;-69
2022/11/18 01:25:32;;;;;;;4.60;2.30;;;11.60;99.90;;;;;;5029165;28;20061;-72
2022/11/18 01:27:57;;;;;;;6.10;2.90;;;11.60;99.90;;;;;;5028998;28;20028;-73
2022/11/18 01:30:23;;;;;;;8.20;2.60;;;11.60;99.90;;;;;;5029623;28;20021;-71
2022/11/18 01:32:48;;;;;;;7.68;2.80;;;11.60;99.90;;;;;;5026901;28;20029;-72
2022/11/18 01:35:14;;;;;;;6.05;2.90;;;11.60;99.90;;;;;;5030110;28;20053;-74
2022/11/18 01:37:42;;;;;;;9.05;3.25;;;11.60;99.90;;;;;;5029070;28;20115;-72
2022/11/18 01:40:09;;;;;;;8.80;3.28;;;11.60;99.90;;;;;;5029381;28;20490;-72
2022/11/18 01:42:35;;;;;;;9.82;3.70;;;11.60;99.90;;;;;;5030564;28;20047;-72
2022/11/18 01:45:26;;;;;;;11.57;4.43;;;11.60;99.90;;;;;;5030542;28;20545;-72
2022/11/18 01:48:03;;;;;;;17.42;4.07;;;11.50;99.90;;;;;;5030031;28;20510;-68
2022/11/18 01:50:31;;;;;;;9.98;3.63;;;11.50;99.90;;;;;;5032357;28;20025;-73
2022/11/18 01:53:04;;;;;;;10.82;3.45;;;11.40;99.90;;;;;;5026828;28;20083;-71
2022/11/18 01:55:36;;;;;;;9.55;3.50;;;11.40;99.90;;;;;;5028782;28;20037;-70
2022/11/18 01:58:09;;;;;;;9.00;3.70;;;11.40;99.90;;;;;;5028838;28;20049;-72
2022/11/18 02:00:35;;;;;;;11.82;3.70;;;11.40;99.90;;;;;;5030456;28;20060;-71
2022/11/18 02:03:05;;;;;;;18.45;3.70;;;11.40;99.90;;;;;;5031563;28;20041;-72
2022/11/18 02:05:32;;;;;;;12.93;3.80;;;11.30;99.90;;;;;;5031692;28;20044;-72
2022/11/18 02:08:00;;;;;;;11.07;3.63;;;11.30;99.90;;;;;;5035110;28;20026;-72
2022/11/18 02:10:28;;;;;;;11.13;3.97;;;11.30;99.90;;;;;;5037675;28;20036;-72
2022/11/18 02:12:57;;;;;;;9.85;3.28;;;11.30;99.90;;;;;;5036203;28;20029;-71
2022/11/18 02:15:49;;;;;;;15.13;3.55;;;11.30;99.90;;;;;;5030351;28;20144;-70
2022/11/18 02:18:40;;;;;;;11.43;3.22;;;11.30;99.90;;;;;;5029486;28;20029;-70
2022/11/18 02:21:08;;;;;;;17.23;3.45;;;11.30;99.90;;;;;;5027619;28;20072;-70
2022/11/18 02:23:47;;;;;;;9.77;3.25;;;11.40;99.90;;;;;;5029380;28;20033;-72
2022/11/18 02:26:41;;;;;;;9.13;3.47;;;11.30;99.90;;;;;;5028878;28;20030;-71
2022/11/18 02:29:20;;;;;;;8.02;3.63;;;11.40;99.90;;;;;;5028599;28;20053;-70
2022/11/18 02:31:45;;;;;;;9.40;3.25;;;11.40;99.90;;;;;;5028945;28;20057;-71
2022/11/18 02:34:15;;;;;;;6.03;2.85;;;11.40;99.90;;;;;;5028242;28;20072;-72
2022/11/18 02:36:50;;;;;;;11.65;3.33;;;11.40;99.90;;;;;;5029022;28;20039;-69
2022/11/18 02:39:21;;;;;;;10.82;3.72;;;11.40;99.90;;;;;;5028602;28;20045;-72
2022/11/18 02:41:50;;;;;;;7.40;3.40;;;11.40;99.90;;;;;;5027003;28;20372;-71
2022/11/18 02:44:21;;;;;;;8.40;3.42;;;11.40;99.90;;;;;;5029366;28;20026;-70
2022/11/18 02:46:53;;;;;;;8.40;3.58;;;11.40;99.90;;;;;;5030210;28;20029;-72
2022/11/18 02:49:24;;;;;;;10.23;3.43;;;11.40;99.90;;;;;;5028786;28;20134;-72
2022/11/18 02:51:51;;;;;;;15.00;3.55;;;11.50;99.90;;;;;;5029181;28;20031;-73
2022/11/18 02:54:19;;;;;;;5.32;2.85;;;11.50;99.90;;;;;;5028667;28;20014;-71
2022/11/18 02:56:49;;;;;;;13.23;3.22;;;11.50;99.90;;;;;;5029204;28;20040;-71
2022/11/18 02:59:19;;;;;;;9.50;3.17;;;11.40;99.90;;;;;;5031130;28;20113;-72
2022/11/18 03:01:46;;;;;;;8.35;3.45;;;11.40;99.90;;;;;;5033090;28;20462;-72
2022/11/18 03:04:15;;;;;;;6.68;3.03;;;11.40;99.90;;;;;;5033639;28;20032;-73
2022/11/18 03:06:47;;;;;;;3.40;2.80;;;11.40;99.90;;;;;;5030380;28;20026;-73
2022/11/18 03:09:19;;;;;;;7.50;3.47;;;11.50;99.90;;;;;;5031777;28;20021;-73
2022/11/18 03:11:55;;;;;;;12.35;3.25;;;11.50;99.90;;;;;;5032593;28;20275;-74
2022/11/18 03:14:37;;;;;;;7.28;3.13;;;11.50;99.90;;;;;;5034068;28;20026;-72
2022/11/18 03:17:11;;;;;;;6.38;3.13;;;11.50;99.90;;;;;;5036341;28;20022;-71
2022/11/18 03:19:53;;;;;;;10.70;3.58;;;11.50;99.90;;;;;;5034222;28;20036;-74
2022/11/18 03:22:34;;;;;;;7.55;3.10;;;11.50;99.90;;;;;;5029787;28;20083;-75
2022/11/18 03:25:06;;;;;;;6.80;2.80;;;11.50;99.90;;;;;;5031347;28;20032;-72
2022/11/18 03:28:08;;;;;;;8.88;3.20;;;11.50;99.90;;;;;;5028777;28;20573;-74
2022/11/18 03:30:38;;;;;;;9.27;2.78;;;11.60;99.90;;;;;;5031792;28;20051;-76
2022/11/18 03:33:08;;;;;;;6.13;2.60;;;11.60;99.90;;;;;;5032939;28;20101;-75
2022/11/18 03:35:38;;;;;;;7.38;2.95;;;11.60;99.90;;;;;;5033997;28;20021;-73
2022/11/18 03:38:29;;;;;;;8.00;3.03;;;11.60;99.90;;;;;;5035049;28;20773;-77
2022/11/18 03:41:01;;;;;;;6.57;3.10;;;11.60;99.90;;;;;;5025739;28;20021;-77
2022/11/18 03:43:31;;;;;;;7.57;2.83;;;11.60;99.90;;;;;;5033123;28;20099;-76
2022/11/18 03:46:16;;;;;;;7.18;2.85;;;11.60;99.90;;;;;;5030653;28;20028;-74
2022/11/18 03:48:48;;;;;;;10.50;3.03;;;11.60;99.90;;;;;;5033265;28;20032;-74
2022/11/18 03:51:19;;;;;;;11.68;3.08;;;11.70;99.90;;;;;;5030446;28;20030;-73
2022/11/18 03:53:56;;;;;;;7.68;3.42;;;11.70;99.90;;;;;;5035123;28;20120;-73
2022/11/18 03:56:29;;;;;;;12.15;3.17;;;11.70;99.90;;;;;;5038736;28;20025;-75
2022/11/18 03:59:28;;;;;;;9.65;3.38;;;11.70;99.90;;;;;;5034402;28;20025;-73
2022/11/18 04:02:19;;;;;;;9.60;3.53;;;11.60;99.90;;;;;;5032570;28;20494;-74
2022/11/18 04:04:50;;;;;;;10.73;3.58;;;11.60;99.90;;;;;;5030923;28;20036;-73
2022/11/18 04:07:21;;;;;;;10.15;4.32;;;11.60;99.90;;;;;;5030330;28;20018;-71
2022/11/18 04:10:13;;;;;;;16.00;3.92;;;11.50;99.90;;;;;;5028496;28;20108;-72
2022/11/18 04:12:55;;;;;;;12.00;4.07;;;11.60;99.90;;;;;;5033210;28;20044;-72
2022/11/18 04:15:23;;;;;;;8.50;3.50;;;11.60;99.90;;;;;;5027066;28;20036;-73
2022/11/18 04:17:50;;;;;;;7.60;3.92;;;11.60;99.90;;;;;;5026247;28;20056;-70
2022/11/18 04:20:21;;;;;;;12.68;4.55;;;11.60;99.90;;;;;;5028327;28;20037;-70
2022/11/18 04:22:47;;;;;;;8.10;3.60;;;11.50;99.90;;;;;;5027803;28;20017;-71
2022/11/18 04:25:13;;;;;;;10.40;3.85;;;11.50;99.90;;;;;;5028941;28;20108;-71
2022/11/18 04:27:41;;;;;;;14.55;3.55;;;11.50;99.90;;;;;;5026780;28;20102;-72
2022/11/18 04:30:08;;;;;;;11.25;3.67;;;11.50;99.90;;;;;;5026845;28;20083;-70
2022/11/18 04:32:33;;;;;;;12.52;4.00;;;11.60;99.90;;;;;;5027287;28;20022;-71
2022/11/18 04:35:02;;;;;;;11.57;3.63;;;11.60;99.90;;;;;;5027687;28;20026;-70
2022/11/18 04:37:27;;;;;;;9.90;4.40;;;11.60;99.90;;;;;;5027059;28;20037;-73
2022/11/18 04:39:53;;;;;;;13.07;4.13;;;11.60;99.90;;;;;;5026633;28;20045;-71
2022/11/18 04:42:21;;;;;;;9.00;3.65;;;11.50;99.90;;;;;;5027851;28;20049;-70
2022/11/18 04:44:46;;;;;;;8.25;3.70;;;11.60;99.90;;;;;;5025648;28;20028;-72
2022/11/18 04:47:12;;;;;;;13.27;4.07;;;11.60;99.90;;;;;;5026968;28;20029;-72
2022/11/18 04:49:40;;;;;;;13.10;3.92;;;11.60;99.90;;;;;;5028946;28;20514;-71
2022/11/18 04:52:08;;;;;;;8.27;4.15;;;11.60;99.90;;;;;;5030892;28;20035;-71
2022/11/18 04:54:34;;;;;;;15.50;3.92;;;11.60;99.90;;;;;;5029637;28;20481;-70
2022/11/18 04:57:02;;;;;;;8.52;3.83;;;11.50;99.90;;;;;;5031145;28;20033;-72
2022/11/18 04:59:28;;;;;;;8.38;3.40;;;11.50;99.90;;;;;;5030736;28;20047;-68
2022/11/18 05:01:59;;;;;;;10.45;3.92;;;11.50;99.90;;;;;;5030520;28;20101;-70
2022/11/18 05:04:31;;;;;;;13.35;3.90;;;11.60;99.90;;;;;;5030084;28;20129;-71
2022/11/18 05:07:01;;;;;;;9.88;4.03;;;11.60;99.90;;;;;;5031230;28;20083;-72
2022/11/18 05:09:27;;;;;;;12.00;4.00;;;11.60;99.90;;;;;;5031046;28;20030;-68
2022/11/18 05:14:39;;;;;;;10.02;3.58;;;11.60;99.90;;;;;;5036461;28;20094;-73
2022/11/18 05:17:07;;;;;;;8.00;3.47;;;11.60;99.90;;;;;;5033787;28;20132;-72
2022/11/18 05:19:33;;;;;;;17.98;4.38;;;11.60;99.90;;;;;;5033214;28;20030;-73
2022/11/18 05:22:01;;;;;;;8.95;3.55;;;11.60;99.90;;;;;;5032365;28;20052;-75
2022/11/18 05:24:27;;;;;;;11.10;4.03;;;11.60;99.90;;;;;;5031111;28;20043;-71
2022/11/18 05:26:53;;;;;;;7.03;3.65;;;11.60;99.90;;;;;;5029045;28;20034;-73
2022/11/18 05:29:22;;;;;;;10.10;3.72;;;11.60;99.90;;;;;;5032597;28;20026;-70
2022/11/18 05:31:48;;;;;;;9.30;3.10;;;11.60;99.90;;;;;;5031938;28;20025;-74
2022/11/18 05:34:14;;;;;;;6.35;2.90;;;11.50;99.90;;;;;;5030779;28;20143;-71
2022/11/18 05:36:40;;;;;;;8.98;3.38;;;11.40;99.90;;;;;;5030689;28;20021;-73
2022/11/18 05:39:06;;;;;;;8.77;3.00;;;11.40;99.90;;;;;;5032270;28;20099;-71
2022/11/18 05:44:19;;;;;;;11.52;3.33;;;11.30;99.90;;;;;;5030640;28;20036;-72
2022/11/18 05:46:44;;;;;;;7.80;3.03;;;11.30;99.90;;;;;;5029806;28;20029;-71
2022/11/18 05:49:12;;;;;;;9.10;3.17;;;11.20;99.90;;;;;;5030258;28;20032;-71
2022/11/18 05:51:38;;;;;;;9.20;3.28;;;11.20;99.90;;;;;;5030042;28;20071;-73
2022/11/18 05:54:07;;;;;;;11.85;3.00;;;11.10;99.90;;;;;;5029605;28;20558;-70
2022/11/18 05:56:33;;;;;;;12.25;3.03;;;11.10;99.90;;;;;;5029142;28;20022;-72
2022/11/18 05:59:03;;;;;;;8.70;3.05;;;11.20;99.90;;;;;;5028305;28;20611;-71
2022/11/18 06:01:53;;;;;;;14.23;3.13;;;11.10;99.90;;;;;;5031366;28;20037;-75
2022/11/18 06:04:37;;;;;;;7.10;2.97;;;11.10;99.90;;;;;;5028709;28;20033;-72
2022/11/18 06:07:12;;;;;;;7.43;3.03;;;11.10;99.90;;;;;;5027755;28;20021;-70
2022/11/18 06:09:41;;;;;;;8.85;3.45;;;11.10;99.90;;;;;;5029079;28;20025;-73
2022/11/18 06:12:12;;;;;;;7.22;4.05;;;11.20;99.90;;;;;;5031954;28;20101;-76
2022/11/18 06:14:46;;;;;;;10.98;4.28;;;11.10;99.90;;;;;;5031993;28;20041;-71
2022/11/18 06:17:19;;;;;;;10.60;4.05;;;11.20;99.90;;;;;;5031432;28;20538;-73
2022/11/18 06:19:47;;;;;;;9.88;4.18;;;11.20;99.90;;;;;;5033788;28;20056;-76
2022/11/18 06:22:15;;;;;;;10.07;4.05;;;11.20;99.90;;;;;;5032967;28;20030;-72
2022/11/18 06:24:49;;;;;;;11.77;3.90;;;11.20;99.90;;;;;;5040587;28;20120;-74
2022/11/18 06:27:15;;;;;;;14.98;3.75;;;11.20;99.90;;;;;;5036265;28;20094;-71
2022/11/18 06:29:41;;;;;;;11.25;3.65;;;11.20;99.90;;;;;;5031816;28;20036;-71
2022/11/18 06:32:07;;;;;;;8.43;3.42;;;11.20;99.90;;;;;;5031338;28;20025;-72
2022/11/18 06:34:32;;;;;;;8.20;2.90;;;11.20;99.90;;;;;;5031635;28;20033;-70
2022/11/18 06:36:58;;;;;;;9.10;3.00;;;11.10;99.90;;;;;;5030897;28;20048;-71
2022/11/18 06:39:24;;;;;;;7.90;3.10;;;11.10;99.90;;;;;;5032146;28;20061;-70
2022/11/18 06:41:52;;;;;;;7.68;2.97;;;11.00;99.90;;;;;;5031952;28;20028;-70
2022/11/18 06:44:20;;;;;;;7.78;2.95;;;11.10;99.90;;;;;;5029666;28;20140;-70
2022/11/18 06:46:55;;;;;;;4.72;2.95;;;11.10;99.90;;;;;;5030772;28;20049;-72
2022/11/18 06:49:21;;;;;;;9.43;3.08;;;11.10;99.90;;;;;;5036428;28;20022;-74
2022/11/18 06:51:47;;;;;;;7.30;2.88;;;11.10;99.90;;;;;;5032138;28;20366;-77
2022/11/18 06:54:15;;;;;;;9.43;3.50;;;11.10;99.90;;;;;;5031396;28;20036;-73
2022/11/18 06:56:43;;;;;;;7.72;3.97;;;11.10;99.90;;;;;;5032127;28;20024;-73
2022/11/18 06:59:09;;;;;;;6.72;3.20;;;11.00;99.90;;;;;;5029238;28;20112;-72
2022/11/18 07:01:37;;;;;;;4.70;2.65;;;11.00;99.90;;;;;;5030701;28;20100;-71
2022/11/18 07:04:05;;;;;;;11.45;3.17;;;11.00;99.90;;;;;;5028773;28;20025;-71
2022/11/18 07:06:33;;;;;;;13.05;3.22;;;11.00;99.90;;;;;;5032268;28;20052;-73
2022/11/18 07:09:01;;;;;;;6.15;2.50;;;11.10;99.90;;;;;;5030364;28;20447;-73
2022/11/18 07:11:29;;;;;;;5.55;2.42;;;11.10;99.90;;;;;;5030742;28;20053;-72
2022/11/18 07:13:55;;;;;;;7.25;2.88;;;11.20;99.90;;;;;;5028580;28;20051;-72
2022/11/18 07:16:27;;;;;;;7.30;2.88;;;11.20;99.90;;;;;;5029936;28;20671;-71
2022/11/18 07:18:54;;;;;;;10.80;2.87;;;11.20;99.90;;;;;;5031219;28;20053;-72
2022/11/18 07:21:25;;;;;;;4.65;2.33;;;11.20;99.90;;;;;;5029055;28;20036;-73
2022/11/18 07:23:51;;;;;;;16.13;3.40;;;11.20;99.90;;;;;;5030033;28;20163;-70
2022/11/18 07:26:17;;;;;;;8.30;3.22;;;11.20;99.90;;;;;;5027267;28;20111;-71
2022/11/18 07:28:46;;;;;;;7.10;2.83;;;11.20;99.90;;;;;;5028843;28;20354;-72
2022/11/18 07:31:14;;;;;;;11.70;2.70;;;11.20;99.90;;;;;;5027358;28;20029;-72
2022/11/18 07:33:44;;;;;;;9.93;3.58;;;11.20;99.90;;;;;;5029591;28;20033;-71
2022/11/18 07:36:12;;;;;;;8.15;3.13;;;11.30;99.90;;;;;;5032637;28;20133;-72
2022/11/18 07:38:38;;;;;;;10.40;2.80;;;11.20;99.90;;;;;;5043306;28;20056;-73
2022/11/18 07:41:06;;;;;;;7.00;2.50;;;11.30;99.90;;;;;;5029592;28;20036;-74
2022/11/18 07:43:36;;;;;;;9.68;3.10;;;11.30;99.90;;;;;;5030903;28;20059;-72
2022/11/18 07:46:30;;;;;;;8.38;3.13;;;11.30;99.90;;;;;;5027348;28;20026;-72
2022/11/18 07:48:57;;;;;;;7.18;3.10;;;11.30;99.90;;;;;;5028195;28;20586;-72
2022/11/18 07:51:29;;;;;;;8.52;2.85;;;11.30;99.90;;;;;;5035630;28;20040;-71
2022/11/18 07:54:00;;;;;;;9.45;2.55;;;11.40;99.90;;;;;;5038741;28;20040;-71
2022/11/18 07:56:28;;;;;;;5.25;2.67;;;11.40;99.90;;;;;;5032956;28;20026;-72
2022/11/18 07:58:55;;;;;;;7.57;2.80;;;11.40;99.90;;;;;;5027316;28;20628;-72
2022/11/18 08:01:22;;;;;;;12.48;3.60;;;11.50;99.90;;;;;;5029770;28;20021;-74
2022/11/18 08:03:48;;;;;;;10.52;3.00;;;11.50;99.90;;;;;;5029239;28;20116;-72
2022/11/18 08:06:16;;;;;;;5.05;3.03;;;11.50;99.90;;;;;;5030648;28;20525;-71
2022/11/18 08:08:44;;;;;;;9.77;2.45;;;11.60;99.90;;;;;;5028281;28;20044;-72
2022/11/18 08:11:12;;;;;;;6.30;2.90;;;11.60;99.90;;;;;;5026440;28;20809;-72
2022/11/18 08:13:38;;;;;;;6.43;2.92;;;11.60;99.90;;;;;;5026825;28;20161;-73
2022/11/18 08:16:10;;;;;;;9.60;3.20;;;11.60;99.90;;;;;;5029117;28;20108;-69
2022/11/18 08:18:37;;;;;;;8.65;2.83;;;11.60;99.90;;;;;;5027009;28;20089;-72
2022/11/18 08:21:04;;;;;;;8.40;2.65;;;11.60;99.90;;;;;;5027843;28;20068;-71
2022/11/18 08:23:30;;;;;;;7.45;2.90;;;11.60;99.90;;;;;;5028991;28;20041;-74
2022/11/18 08:26:05;;;;;;;9.05;2.53;;;11.60;99.90;;;;;;5028466;28;20018;-73
2022/11/18 08:28:31;;;;;;;8.77;3.30;;;11.70;99.90;;;;;;5026791;28;20033;-73
2022/11/18 08:30:57;;;;;;;8.50;3.10;;;11.70;99.90;;;;;;5028365;28;20359;-74
2022/11/18 08:33:24;;;;;;;8.05;3.13;;;11.60;99.90;;;;;;5030808;28;20083;-74
2022/11/18 08:35:51;;;;;;;6.97;3.97;;;11.70;99.90;;;;;;5028440;28;20108;-71
2022/11/18 08:38:19;;;;;;;9.88;3.20;;;11.70;99.90;;;;;;5027965;28;20112;-70
2022/11/18 08:40:47;;;;;;;7.55;3.25;;;11.80;99.90;;;;;;5027873;28;20044;-74
2022/11/18 08:43:13;;;;;;;5.00;2.85;;;11.90;99.90;;;;;;5029221;28;20108;-74
2022/11/18 08:45:39;;;;;;;4.50;2.78;;;11.90;99.90;;;;;;5029854;28;20033;-74
2022/11/18 08:48:07;;;;;;;7.85;2.65;;;12.00;99.90;;;;;;5033817;28;20026;-75
2022/11/18 08:50:33;;;;;;;6.10;2.75;;;12.10;99.90;;;;;;5035081;28;20037;-75
2022/11/18 08:52:59;;;;;;;7.25;2.70;;;12.20;99.90;;;;;;5038056;28;20025;-74
2022/11/18 08:55:24;;;;;;;6.72;3.13;;;12.30;99.90;;;;;;5037035;28;20021;-74
2022/11/18 08:57:50;;;;;;;5.07;3.30;;;12.40;99.90;;;;;;5037508;28;20064;-70
2022/11/18 09:00:20;;;;;;;11.00;2.97;;;12.50;99.90;;;;;;5028772;28;20026;-74
2022/11/18 09:02:49;;;;;;;7.65;2.85;;;12.60;99.90;;;;;;5025897;28;20033;-74
2022/11/18 09:05:14;;;;;;;6.55;2.50;;;12.80;99.90;;;;;;5026522;28;20018;-73
2022/11/18 09:07:40;;;;;;;4.80;2.22;;;12.80;99.90;;;;;;5026466;28;20046;-74
2022/11/18 09:10:06;;;;;;;6.15;2.22;;;12.70;99.90;;;;;;5027592;28;21345;-74
2022/11/18 09:12:32;;;;;;;8.57;2.70;;;12.70;99.90;;;;;;5027016;28;20624;-74
2022/11/18 09:14:57;;;;;;;10.25;2.20;;;12.70;99.90;;;;;;5026348;28;20029;-73
2022/11/18 09:17:23;;;;;;;6.63;2.72;;;12.70;99.90;;;;;;5026336;28;20029;-73
2022/11/18 09:19:48;;;;;;;5.75;2.55;;;12.70;99.90;;;;;;5026500;28;20045;-74
2022/11/18 09:22:14;;;;;;;4.93;2.40;;;12.70;99.90;;;;;;5026282;28;20457;-74
2022/11/18 09:24:40;;;;;;;5.03;2.35;;;12.90;99.90;;;;;;5025783;28;20078;-74
2022/11/18 09:27:08;;;;;;;3.30;2.20;;;12.90;99.90;;;;;;5027005;28;20518;-73
2022/11/18 09:29:33;;;;;;;10.82;2.53;;;12.80;99.90;;;;;;5025651;28;20029;-72
2022/11/18 09:32:01;;;;;;;4.18;2.15;;;12.80;99.90;;;;;;5025890;28;20028;-73
2022/11/18 09:34:27;;;;;;;7.05;2.65;;;12.90;99.90;;;;;;5023946;28;20112;-73
2022/11/18 09:36:55;;;;;;;5.13;2.05;;;12.90;99.90;;;;;;5029236;28;20021;-74
2022/11/18 09:39:24;;;;;;;4.30;2.78;;;12.90;99.90;;;;;;5031644;28;20132;-74
2022/11/18 09:41:49;;;;;;;5.10;2.38;;;13.00;99.90;;;;;;5028851;28;20049;-73
2022/11/18 09:44:37;;;;;;;7.32;2.70;;;13.10;99.90;;;;;;5031681;28;20037;-74
2022/11/18 09:47:15;;;;;;;6.57;1.90;;;13.10;99.90;;;;;;5028845;28;20209;-71
2022/11/18 09:49:45;;;;;;;6.80;2.65;;;13.40;99.90;;;;;;5030842;28;20026;-74
2022/11/18 09:52:20;;;;;;;8.77;2.97;;;13.40;99.90;;;;;;5029501;28;20034;-74
2022/11/18 09:54:48;;;;;;;3.22;2.00;;;13.60;99.90;;;;;;5030612;28;20049;-70
2022/11/18 09:57:23;;;;;;;4.03;2.45;;;13.60;99.90;;;;;;5029507;28;20444;-71
2022/11/18 09:59:49;;;;;;;6.40;2.70;;;13.60;99.90;;;;;;5030611;28;20043;-73
2022/11/18 10:02:20;;;;;;;5.00;2.28;;;13.70;99.90;;;;;;5029947;28;20025;-73
2022/11/18 10:04:49;;;;;;;4.68;2.40;;;13.80;99.90;;;;;;5030639;28;20137;-74
2022/11/18 10:07:20;;;;;;;4.93;2.22;;;13.70;99.90;;;;;;5030832;28;20034;-73
2022/11/18 10:09:51;;;;;;;4.35;2.38;;;13.80;99.90;;;;;;5028731;28;20037;-73
2022/11/18 10:12:26;;;;;;;6.72;2.78;;;13.90;99.90;;;;;;5029340;28;20685;-73
2022/11/18 10:15:23;;;;;;;3.83;2.25;;;14.10;99.90;;;;;;5028991;28;20140;-73
2022/11/18 10:18:07;;;;;;;6.68;2.05;;;14.30;99.90;;;;;;5029880;28;20524;-73
2022/11/18 10:21:11;;;;;;;6.38;3.20;;;14.60;99.90;;;;;;5029857;28;20044;-73
2022/11/18 10:24:01;;;;;;;10.30;2.35;;;14.80;99.90;;;;;;5029274;28;20025;-73
2022/11/18 10:26:37;;;;;;;5.32;2.22;;;15.00;99.90;;;;;;5028710;28;20566;-70
2022/11/18 10:29:03;;;;;;;7.90;3.00;;;15.00;99.90;;;;;;5028290;28;20029;-74
2022/11/18 10:31:28;;;;;;;6.03;2.58;;;15.20;99.90;;;;;;5029887;28;20049;-75
2022/11/18 10:34:00;;;;;;;6.35;2.28;;;15.40;99.90;;;;;;5028968;28;20068;-73
2022/11/18 10:36:32;;;;;;;5.20;2.10;;;15.80;99.90;;;;;;5029470;28;20174;-75
2022/11/18 10:39:07;;;;;;;5.45;2.78;;;16.00;99.90;;;;;;5027932;28;20705;-74
2022/11/18 10:42:00;;;;;;;6.55;2.10;;;16.20;99.90;;;;;;5040835;28;20037;-73
2022/11/18 10:44:38;;;;;;;8.52;2.33;;;16.00;99.90;;;;;;5028251;28;20382;-72
2022/11/18 10:47:28;;;;;;;9.77;2.58;;;15.60;99.90;;;;;;5028857;28;20033;-72
2022/11/18 10:50:21;;;;;;;6.38;2.45;;;15.20;99.90;;;;;;5027867;28;20144;-71
2022/11/18 10:52:54;;;;;;;8.45;2.03;;;14.90;99.90;;;;;;5028637;28;20021;-72
2022/11/18 10:55:24;;;;;;;3.75;1.98;;;14.80;99.90;;;;;;5030149;28;20030;-74
2022/11/18 10:57:58;;;;;;;8.02;2.28;;;14.80;99.90;;;;;;5029142;28;20094;-73
2022/11/18 11:00:48;;;;;;;6.97;2.97;;;14.70;99.90;;;;;;5031203;28;20588;-72
2022/11/18 11:03:37;;;;;;;7.20;2.10;;;14.60;99.90;;;;;;5028745;28;20038;-74
2022/11/18 11:06:12;;;;;;;9.20;2.72;;;14.50;99.90;;;;;;5027392;28;20104;-70
2022/11/18 11:08:47;;;;;;;17.00;5.18;;;14.40;99.90;;;;;;5028057;28;20034;-71
2022/11/18 11:11:25;;;;;;;5.00;1.83;;;14.50;99.90;;;;;;5029699;28;20017;-70
2022/11/18 11:13:59;;;;;;;18.75;3.97;;;14.50;99.90;;;;;;5030901;28;20033;-71
2022/11/18 11:16:29;;;;;;;6.07;1.88;;;14.60;99.90;;;;;;5028872;28;20101;-73
2022/11/18 11:19:01;;;;;;;9.18;2.25;;;14.60;99.90;;;;;;5027653;28;20029;-74
2022/11/18 11:21:28;;;;;;;5.15;2.17;;;14.50;99.90;;;;;;5013077;28;20045;-74
2022/11/18 11:23:54;;;;;;;8.70;2.03;;;14.50;99.90;;;;;;5028135;28;20091;-74
2022/11/18 11:26:20;;;;;;;9.57;2.58;;;14.60;99.90;;;;;;5028699;28;20025;-73
2022/11/18 11:29:05;;;;;;;6.35;2.30;;;14.80;99.90;;;;;;5027373;28;20067;-74
2022/11/18 11:32:02;;;;;;;5.72;1.77;;;15.00;99.90;;;;;;5027035;28;20084;-74
2022/11/18 11:34:45;;;;;;;7.20;2.35;;;15.20;99.90;;;;;;5027398;28;20066;-73
2022/11/18 11:37:26;;;;;;;5.05;1.98;;;15.50;99.90;;;;;;5026100;28;20270;-69
2022/11/18 11:40:07;;;;;;;7.57;2.42;;;15.60;99.90;;;;;;5025995;28;20172;-73
2022/11/18 11:42:42;;;;;;;7.43;2.63;;;16.00;99.90;;;;;;5027534;28;20087;-74
2022/11/18 11:45:21;;;;;;;9.00;2.40;;;15.80;99.90;;;;;;5026113;28;20073;-72
2022/11/18 11:48:13;;;;;;;4.10;2.38;;;15.90;99.90;;;;;;5027797;28;20021;-73
2022/11/18 11:50:53;;;;;;;4.75;2.05;;;16.20;99.90;;;;;;5010861;28;20029;-74
2022/11/18 11:53:59;;;;;;;7.97;2.25;;;16.70;99.90;;;;;;5027298;28;20028;-73
2022/11/18 11:56:39;;;;;;;5.95;2.13;;;17.20;99.90;;;;;;5024895;28;20095;-72
2022/11/18 11:59:38;;;;;;;7.28;2.33;;;16.60;99.90;;;;;;5025835;28;20072;-72
2022/11/18 12:02:54;;;;;;;8.68;2.53;;;16.00;99.90;;;;;;5043830;28;20026;-70
2022/11/18 12:05:38;;;;;;;4.53;1.60;;;15.80;99.90;;;;;;5006787;28;20048;-70
2022/11/18 12:08:30;;;;;;;7.97;2.28;;;15.50;99.90;;;;;;5026622;28;20037;-69
2022/11/18 12:11:01;;;;;;;7.97;2.10;;;15.20;99.90;;;;;;5026644;28;20041;-70
2022/11/18 12:13:32;;;;;;;8.25;2.40;;;14.70;99.90;;;;;;5044836;28;20159;-73
2022/11/18 12:16:28;;;;;;;10.75;2.03;;;14.60;99.90;;;;;;5026209;28;20041;-73
2022/11/18 12:18:56;;;;;;;11.25;2.55;;;14.80;99.90;;;;;;5023950;28;20043;-73
2022/11/18 12:21:47;;;;;;;8.18;2.45;;;14.80;99.90;;;;;;5028099;28;20037;-73
2022/11/18 12:24:30;;;;;;;4.45;1.98;;;15.10;99.90;;;;;;5027930;28;20479;-72
2022/11/18 12:27:15;;;;;;;8.43;2.30;;;15.40;99.90;;;;;;5037920;28;20029;-72
2022/11/18 12:29:50;;;;;;;6.20;2.00;;;15.80;99.90;;;;;;5026302;28;20025;-72
2022/11/18 12:32:41;;;;;;;11.18;2.20;;;16.10;99.90;;;;;;5026575;28;20030;-72
2022/11/18 12:35:12;;;;;;;7.22;1.95;;;16.50;99.90;;;;;;5026379;28;20179;-73
2022/11/18 12:37:55;;;;;;;5.57;2.40;;;16.70;99.90;;;;;;5027341;28;20030;-72
2022/11/18 12:40:38;;;;;;;11.95;2.05;;;16.90;99.90;;;;;;5025214;28;20673;-73
2022/11/18 12:46:03;;;;;;;17.98;2.90;;;17.10;99.90;;;;;;5027837;28;20115;-72
2022/11/18 12:48:39;;;;;;;4.40;1.88;;;17.20;99.90;;;;;;5026008;28;20033;-71
2022/11/18 12:51:13;;;;;;;18.85;2.75;;;17.20;99.90;;;;;;5026491;28;20108;-73
2022/11/18 12:53:44;;;;;;;9.63;2.60;;;16.40;99.90;;;;;;5026162;28;20049;-72
2022/11/18 12:56:19;;;;;;;8.88;1.75;;;16.50;99.90;;;;;;5023710;28;20036;-73
2022/11/18 12:58:50;;;;;;;11.63;2.20;;;16.40;99.90;;;;;;5026244;28;20161;-72
2022/11/18 13:01:19;;;;;;;5.03;1.90;;;16.30;99.90;;;;;;5025570;28;20037;-72
2022/11/18 13:03:45;;;;;;;5.68;2.13;;;16.10;99.90;;;;;;5027143;28;20124;-72
2022/11/18 13:06:27;;;;;;;6.68;1.85;;;15.90;99.90;;;;;;5025111;28;20033;-72
2022/11/18 13:09:01;;;;;;;11.02;1.80;;;15.40;99.90;;;;;;5027247;28;20030;-72
2022/11/18 13:11:45;;;;;;;4.07;1.70;;;15.10;99.90;;;;;;5037517;28;20041;-72
2022/11/18 13:17:57;;;;;;;6.88;2.22;;;14.80;99.90;;;;;;5031143;28;20040;-72
2022/11/18 13:20:32;;;;;;;8.93;2.20;;;14.80;99.90;;;;;;5031015;28;20034;-71
2022/11/18 13:26:16;;;;;;;4.93;2.20;;;15.60;99.90;;;;;;5033392;28;20032;-72